This is the latest recevied weather packets stored in our database for station/object KA7RLM. If no packets are shown the sender has not sent any weather packets the latest 10 day(s).
| Time | Temp. | Humidity | Pressure | Rain* | Wind** | Luminosity | Snow |
|---|---|---|---|---|---|---|---|
| 1777352428 | 10.56° C | 75% | 1020 hPa | 0 mm | - | - | - |
| 1777348233 | 11.67° C | 76% | 1019.2 hPa | 0 mm | - | - | - |
| 1777347027 | 12.22° C | 77% | 1019 hPa | 0 mm | - | - | - |
| 1777345217 | 12.78° C | 77% | 1018.7 hPa | 0 mm | - | - | - |
| 1777343416 | 12.78° C | 77% | 1018.5 hPa | 0 mm | - | - | - |
| 1777341048 | 12.78° C | 74% | 1018.3 hPa | 0 mm | - | - | - |
| 1777340426 | 13.33° C | 74% | 1018.3 hPa | 0 mm | - | - | - |
| 1777338016 | 14.44° C | 68% | 1018 hPa | 0 mm | - | - | - |
| 1777333826 | 13.89° C | 67% | 1017.8 hPa | 0 mm | - | - | - |
| 1777333217 | 13.89° C | 67% | 1017.8 hPa | 0 mm | - | - | - |
| 1777332016 | - | - | 1017.7 hPa | 0 mm | - | - | - |
| 1777329016 | 15° C | 64% | 1017.7 hPa | 0 mm | - | - | - |
| 1777326623 | 14.44° C | 64% | 1017.5 hPa | 0 mm | - | - | - |
| 1777324832 | 13.89° C | 66% | 1017.6 hPa | 0 mm | - | - | - |
| 1777319419 | 13.89° C | 69% | 1017.6 hPa | 0 mm | - | - | - |
| 1777314641 | 13.89° C | 66% | 1017.3 hPa | 0 mm | - | - | - |
| 1777314024 | 13.89° C | 65% | 1017.2 hPa | 0 mm | - | - | - |
| 1777311628 | 12.78° C | 70% | 1016.9 hPa | 0 mm | - | - | - |
| 1777311071 | 12.78° C | 70% | 1016.9 hPa | 0 mm | - | - | - |
| 1777308017 | 12.22° C | 71% | 1016.9 hPa | 0 mm | - | - | - |
| 1777305020 | 12.22° C | 73% | 1016.8 hPa | 0 mm | - | - | - |
| 1777302615 | 11.11° C | 80% | 1016.6 hPa | 0 mm | - | - | - |
| 1777301423 | 8.89° C | 86% | 1016.5 hPa | 0 mm | - | - | - |
| 1777296618 | 7.78° C | 93% | 1015.9 hPa | 0 mm | - | - | - |
| 1777296015 | 7.78° C | 94% | 1015.7 hPa | 0 mm | - | - | - |
* Rain latest hour (hover to see other rain measurements)
** Current wind speed in m/s (hover to see current wind gust speed)